»·PEaware :: CFC412 KLAS-KLAX

CFC412 :: KLAS-KLAX

FLIGHT INFORMATION

Flight Status: Arrived
Operator:
Canadian Armed Forces
More flights by this operator :: More flights under this callsign
Pilot: Anonymous 24180 (24180)
Aircraft: AIRBUS A320
(A320)
More flights by this aircraft type
Origin: KLAS McCarran Intl
United States
Destination: KLAX Los Angeles Intl
United States
More flights between these airports :: More routes between these airports
Route: RADYR1 BLAQQ SHTNR ANJLL4
File this flight plan on PilotEdge
Remarks: RMK / SIMBRIEF
Altitude:
(Current/Filed)
30,000ft
Speed:
(Current/Filed)
469kts
Departed: 22-Mar-21 11:56 AM
Arrived: 22-Mar-21 12:35 PM
Distance/Time
Traveled:
205nm/0:39
Distance/Time
To Go:
Arrived

Flight Plot

Page will automatically refresh every two minutes.

Flight plan parsing failed; only flown route is shown


Map Options




Map Legend


Flown Route
Filed Route
Departure Airport
Arrival Airport
Navaid (VOR, NDB)
Fix

Horizontal Profiles

Position Reports

Time Latitude Longitude Heading Altitude Ground
Speed
22-Mar-21 11:22 36.079897 -115.135305 0 2188ft 0kts
22-Mar-21 11:23 36.079897 -115.135305 0 2188ft 0kts
22-Mar-21 11:24 36.079897 -115.135305 0 2188ft 0kts
22-Mar-21 11:25 36.079897 -115.135305 0 2188ft 0kts
22-Mar-21 11:26 36.079897 -115.135305 0 2188ft 0kts
22-Mar-21 11:27 36.079897 -115.135305 0 2188ft 0kts
22-Mar-21 11:28 36.079897 -115.135305 0 2188ft 0kts
22-Mar-21 11:29 36.079897 -115.135305 0 2188ft 0kts
22-Mar-21 11:30 36.079897 -115.135305 0 2188ft 0kts
22-Mar-21 11:31 36.079897 -115.135305 0 2188ft 0kts
22-Mar-21 11:32 36.079897 -115.135305 0 2188ft 0kts
22-Mar-21 11:33 36.079897 -115.135305 0 2188ft 0kts
22-Mar-21 11:34 36.079897 -115.135305 0 2188ft 0kts
22-Mar-21 11:35 36.079897 -115.135305 0 2188ft 0kts
22-Mar-21 11:36 36.079897 -115.135305 0 2188ft 0kts
22-Mar-21 11:37 36.079897 -115.135305 0 2188ft 0kts
22-Mar-21 11:38 36.079897 -115.135305 0 2188ft 0kts
22-Mar-21 11:39 36.079897 -115.135305 0 2188ft 0kts
22-Mar-21 11:40 36.079897 -115.135305 0 2188ft 0kts
22-Mar-21 11:41 36.079897 -115.135305 0 2188ft 0kts
22-Mar-21 11:42 36.079897 -115.135305 0 2188ft 0kts
22-Mar-21 11:43 36.079897 -115.135305 0 2188ft 0kts
22-Mar-21 11:44 36.079788 -115.135294 353 2188ft 2kts
22-Mar-21 11:45 36.079221 -115.135442 55 2188ft 2kts
22-Mar-21 11:46 36.079159 -115.135731 91 2188ft 0kts
22-Mar-21 11:47 36.079159 -115.135730 91 2188ft 0kts
22-Mar-21 11:48 36.079159 -115.135730 91 2188ft 0kts
22-Mar-21 11:49 36.079045 -115.134061 118 2188ft 7kts
22-Mar-21 11:50 36.077562 -115.133211 98 2188ft 5kts
22-Mar-21 11:51 36.077576 -115.129105 89 2188ft 13kts
22-Mar-21 11:52 36.077592 -115.122879 90 2188ft 15kts
22-Mar-21 11:53 36.077503 -115.121483 129 2188ft 0kts
22-Mar-21 11:54 36.076460 -115.122032 269 2188ft 12kts
22-Mar-21 11:55 36.076448 -115.159920 271 2928ft 175kts
22-Mar-21 11:56 36.073675 -115.223915 262 5259ft 219kts
22-Mar-21 11:57 36.025419 -115.279856 201 7348ft 290kts
22-Mar-21 11:58 35.945711 -115.305599 193 9017ft 306kts
22-Mar-21 11:59 35.857471 -115.327185 193 11167ft 350kts
22-Mar-21 12:00 35.752094 -115.353079 193 12119ft 411kts
22-Mar-21 12:01 35.634659 -115.381700 193 13527ft 436kts
22-Mar-21 12:02 35.510611 -115.380765 178 15133ft 451kts
22-Mar-21 12:03 35.388947 -115.409379 211 16579ft 450kts
22-Mar-21 12:04 35.276234 -115.481505 211 17955ft 459kts
22-Mar-21 12:05 35.160824 -115.555003 211 19195ft 467kts
22-Mar-21 12:06 35.062661 -115.657207 230 20330ft 464kts
22-Mar-21 12:07 34.971897 -115.773050 230 21438ft 470kts
22-Mar-21 12:08 34.880107 -115.889791 230 22465ft 476kts
22-Mar-21 12:09 34.786802 -116.008059 230 23343ft 482kts
22-Mar-21 12:10 34.692550 -116.128037 231 24115ft 487kts
22-Mar-21 12:11 34.598162 -116.247935 231 24907ft 489kts
22-Mar-21 12:12 34.504155 -116.366881 231 26014ft 484kts
22-Mar-21 12:13 34.412918 -116.488474 238 26207ft 478kts
22-Mar-21 12:14 34.353754 -116.631304 249 26136ft 470kts
22-Mar-21 12:15 34.299295 -116.766447 249 24984ft 407kts
22-Mar-21 12:16 34.251045 -116.884970 249 22208ft 384kts
22-Mar-21 12:17 34.206108 -117.001084 257 20223ft 364kts
22-Mar-21 12:18 34.175091 -117.116133 256 17974ft 358kts
22-Mar-21 12:19 34.144191 -117.229019 256 15919ft 343kts
22-Mar-21 12:20 34.114152 -117.337958 256 14268ft 328kts
22-Mar-21 12:21 34.087490 -117.440458 258 13030ft 311kts
22-Mar-21 12:22 34.058339 -117.539541 251 11986ft 307kts
22-Mar-21 12:23 34.024565 -117.633470 251 10438ft 300kts
22-Mar-21 12:24 34.002745 -117.724606 267 9516ft 270kts
22-Mar-21 12:25 33.995659 -117.817775 268 8487ft 278kts
22-Mar-21 12:26 33.986895 -117.909297 266 7299ft 270kts
22-Mar-21 12:27 33.978055 -117.999155 265 6010ft 266kts
22-Mar-21 12:28 33.969814 -118.084205 267 5016ft 236kts
22-Mar-21 12:29 33.962495 -118.161199 264 3666ft 219kts
22-Mar-21 12:30 33.955699 -118.226290 264 2686ft 174kts
22-Mar-21 12:31 33.950501 -118.276474 264 1866ft 151kts
22-Mar-21 12:32 33.945468 -118.325353 263 1073ft 146kts
22-Mar-21 12:33 33.940522 -118.373377 262 306ft 144kts
22-Mar-21 12:34 33.937786 -118.400990 276 123ft 10kts
22-Mar-21 12:35 33.938534 -118.402760 334 126ft 6kts
22-Mar-21 12:36 33.939890 -118.403760 310 128ft 1kts
22-Mar-21 12:37 33.939901 -118.403776 311 128ft 0kts

Navigation Log

Ident Type
Flight plan parsing failed, navigation log unavailable